createdAt,value
2019-03-22T00:02:26.487Z,7.36
2019-03-22T00:04:54.737Z,7.32
2019-03-22T00:07:22.978Z,7.27
2019-03-22T00:09:51.217Z,7.21
2019-03-22T00:12:19.677Z,7.14
2019-03-22T00:14:47.919Z,7.07
2019-03-22T00:17:16.155Z,7.04
2019-03-22T00:19:44.405Z,7.00
2019-03-22T00:22:12.954Z,6.95
2019-03-22T00:24:41.197Z,6.91
2019-03-22T00:27:16.327Z,6.85
2019-03-22T00:29:39.629Z,6.81
2019-03-22T00:32:07.862Z,6.82
2019-03-22T00:34:36.113Z,6.80
2019-03-22T00:37:04.342Z,6.78
2019-03-22T00:39:32.582Z,6.73
2019-03-22T00:42:00.821Z,6.70
2019-03-22T00:44:29.456Z,6.63
2019-03-22T00:46:57.639Z,6.60
2019-03-22T00:49:26.159Z,6.58
2019-03-22T00:51:54.404Z,6.58
2019-03-22T00:54:22.635Z,6.53
2019-03-22T00:56:51.191Z,6.47
2019-03-22T00:59:19.427Z,6.42
2019-03-22T01:01:47.672Z,6.39
2019-03-22T01:04:15.912Z,6.34
2019-03-22T01:06:44.151Z,6.32
2019-03-22T01:09:12.390Z,6.28
2019-03-22T01:11:40.954Z,6.25
2019-03-22T01:14:09.189Z,6.23
2019-03-22T01:16:37.654Z,6.21
2019-03-22T01:19:05.892Z,6.18
2019-03-22T01:21:34.135Z,6.19
2019-03-22T01:24:02.653Z,6.22
2019-03-22T01:26:30.899Z,6.22
2019-03-22T01:28:59.130Z,6.17
2019-03-22T01:31:27.420Z,6.17
2019-03-22T01:33:55.841Z,6.15
2019-03-22T01:36:24.079Z,6.13
2019-03-22T01:38:52.310Z,6.11
2019-03-22T01:41:20.788Z,6.09
2019-03-22T01:43:49.016Z,6.05
2019-03-22T01:46:17.486Z,5.98
2019-03-22T01:48:45.723Z,5.95
2019-03-22T01:51:14.195Z,5.91
2019-03-22T01:53:42.435Z,5.87
2019-03-22T01:56:10.678Z,5.82
2019-03-22T01:58:39.149Z,5.82
2019-03-22T02:01:07.379Z,5.83
2019-03-22T02:03:35.612Z,5.82
2019-03-22T02:06:03.856Z,5.80
2019-03-22T02:08:32.319Z,5.69
2019-03-22T02:11:00.563Z,5.76
2019-03-22T02:13:29.026Z,5.79
2019-03-22T02:15:57.441Z,5.77
2019-03-22T02:18:25.679Z,5.76
2019-03-22T02:20:54.154Z,5.74
2019-03-22T02:23:22.389Z,5.75
2019-03-22T02:25:50.639Z,5.74
2019-03-22T02:28:19.098Z,5.74
2019-03-22T02:30:47.348Z,5.73
2019-03-22T02:33:15.591Z,5.72
2019-03-22T02:35:44.010Z,5.70
2019-03-22T02:38:12.244Z,5.66
2019-03-22T02:40:40.493Z,5.69
2019-03-22T02:43:08.837Z,5.72
2019-03-22T02:45:37.060Z,5.74
2019-03-22T02:48:05.275Z,5.74
2019-03-22T02:50:33.746Z,5.73
2019-03-22T02:53:01.988Z,5.72
2019-03-22T02:55:30.232Z,5.70
2019-03-22T02:57:58.468Z,5.68
2019-03-22T03:00:26.935Z,5.64
2019-03-22T03:02:55.412Z,5.59
2019-03-22T03:05:23.886Z,5.56
2019-03-22T03:07:52.118Z,5.52
2019-03-22T03:10:20.355Z,5.54
2019-03-22T03:12:48.595Z,5.52
2019-03-22T03:15:18.023Z,5.55
2019-03-22T03:17:46.547Z,5.54
2019-03-22T03:20:18.382Z,5.55
2019-03-22T03:22:46.925Z,5.54
2019-03-22T03:25:16.404Z,5.51
2019-03-22T03:27:44.808Z,5.39
2019-03-22T03:30:18.252Z,5.45
2019-03-22T03:32:46.506Z,5.43
2019-03-22T03:35:14.825Z,5.41
2019-03-22T03:37:43.285Z,5.41
2019-03-22T03:40:13.150Z,5.42
2019-03-22T03:42:41.402Z,5.41
2019-03-22T03:45:32.372Z,5.42
2019-03-22T03:48:02.013Z,5.41
2019-03-22T03:50:30.343Z,5.43
2019-03-22T03:52:58.630Z,5.39
2019-03-22T03:55:27.926Z,5.39
2019-03-22T03:57:56.167Z,5.35
2019-03-22T04:00:24.397Z,5.23
2019-03-22T04:02:52.941Z,5.28
2019-03-22T04:05:21.656Z,5.27
2019-03-22T04:07:49.898Z,5.24
2019-03-22T04:10:18.138Z,5.23
2019-03-22T04:12:46.668Z,5.18
2019-03-22T04:15:14.979Z,5.16
2019-03-22T04:17:43.453Z,5.16
2019-03-22T04:20:11.690Z,5.33
2019-03-22T04:22:39.945Z,5.37
2019-03-22T04:25:08.430Z,5.24
2019-03-22T04:27:36.665Z,5.37
2019-03-22T04:30:08.476Z,5.34
2019-03-22T04:32:36.718Z,5.30
2019-03-22T04:35:08.761Z,5.26
2019-03-22T04:37:36.998Z,5.23
2019-03-22T04:40:11.149Z,5.15
2019-03-22T04:42:39.397Z,5.19
2019-03-22T04:45:07.707Z,5.21
2019-03-22T04:47:36.566Z,5.21
2019-03-22T04:50:05.838Z,5.24
2019-03-22T04:52:34.247Z,5.23
2019-03-22T04:55:02.653Z,5.20
2019-03-22T04:57:31.163Z,5.16
2019-03-22T04:59:59.404Z,5.15
2019-03-22T05:02:28.414Z,5.12
2019-03-22T05:04:56.826Z,5.07
2019-03-22T05:07:25.068Z,5.05
2019-03-22T05:09:53.479Z,5.00
2019-03-22T05:12:22.288Z,5.06
2019-03-22T05:14:50.796Z,5.05
2019-03-22T05:17:19.206Z,5.07
2019-03-22T05:19:50.550Z,5.07
2019-03-22T05:22:19.259Z,5.04
2019-03-22T05:24:48.268Z,4.99
2019-03-22T05:27:16.844Z,5.00
2019-03-22T05:29:46.650Z,4.98
2019-03-22T05:32:16.057Z,4.95
2019-03-22T05:34:44.294Z,4.94
2019-03-22T05:37:12.537Z,4.84
2019-03-22T05:39:40.776Z,4.88
2019-03-22T05:42:09.255Z,4.85
2019-03-22T05:44:37.495Z,4.84
2019-03-22T05:47:05.799Z,4.83
2019-03-22T05:49:34.050Z,4.83
2019-03-22T05:52:02.294Z,4.86
2019-03-22T05:54:30.763Z,4.89
2019-03-22T05:56:59.002Z,4.93
2019-03-22T05:59:27.267Z,5.04
2019-03-22T06:01:55.515Z,5.04
2019-03-22T06:04:23.749Z,5.07
2019-03-22T06:06:51.995Z,5.11
2019-03-22T06:09:20.236Z,5.14
2019-03-22T06:11:48.726Z,5.17
2019-03-22T06:14:17.244Z,5.21
2019-03-22T06:16:45.474Z,5.24
2019-03-22T06:19:13.716Z,5.27
2019-03-22T06:21:42.191Z,5.30
2019-03-22T06:24:10.430Z,5.37
2019-03-22T06:26:38.917Z,5.44
2019-03-22T06:29:07.382Z,5.47
2019-03-22T06:31:35.622Z,5.52
2019-03-22T06:34:04.029Z,5.57
2019-03-22T06:36:32.271Z,5.63
2019-03-22T06:39:00.818Z,5.71
2019-03-22T06:41:29.066Z,5.78
2019-03-22T06:43:57.306Z,5.81
2019-03-22T06:46:25.557Z,5.90
2019-03-22T06:48:53.794Z,6.00
2019-03-22T06:51:22.047Z,6.11
2019-03-22T06:53:50.284Z,6.25
2019-03-22T06:56:18.528Z,6.38
2019-03-22T06:58:47.040Z,6.47
2019-03-22T07:01:15.312Z,6.57
2019-03-22T07:03:43.520Z,6.66
2019-03-22T07:06:11.769Z,6.76
2019-03-22T07:08:40.001Z,6.84
2019-03-22T07:11:08.249Z,6.94
2019-03-22T07:13:36.807Z,7.05
2019-03-22T07:16:05.395Z,7.16
2019-03-22T07:18:33.623Z,7.28
2019-03-22T07:21:01.873Z,7.41
2019-03-22T07:23:30.102Z,7.55
2019-03-22T07:25:58.354Z,7.70
2019-03-22T07:28:26.901Z,7.81
2019-03-22T07:30:55.146Z,7.94
2019-03-22T07:33:23.459Z,8.05
2019-03-22T07:35:51.637Z,8.24
2019-03-22T07:38:20.193Z,8.54
2019-03-22T07:40:48.465Z,8.98
2019-03-22T07:43:16.711Z,9.37
2019-03-22T07:45:44.951Z,9.57
2019-03-22T07:48:13.418Z,9.63
2019-03-22T07:50:41.682Z,9.62
2019-03-22T07:53:09.918Z,9.64
2019-03-22T07:55:38.438Z,9.63
2019-03-22T07:58:06.689Z,9.68
2019-03-22T08:00:34.934Z,9.73
2019-03-22T08:03:03.183Z,9.80
2019-03-22T08:05:31.428Z,9.84
2019-03-22T08:07:59.677Z,9.94
2019-03-22T08:10:27.943Z,10.03
2019-03-22T08:12:56.172Z,10.08
2019-03-22T08:15:29.839Z,10.22
2019-03-22T08:17:58.144Z,10.31
2019-03-22T08:20:26.648Z,10.37
2019-03-22T08:22:54.887Z,10.44
2019-03-22T08:25:23.361Z,10.50
2019-03-22T08:27:51.612Z,10.59
2019-03-22T08:30:20.181Z,10.69
2019-03-22T08:32:50.477Z,10.81
2019-03-22T08:35:18.384Z,10.89
2019-03-22T08:37:52.488Z,11.00
2019-03-22T08:40:16.982Z,11.11
2019-03-22T08:42:45.274Z,11.23
2019-03-22T08:45:13.818Z,11.34
2019-03-22T08:47:42.089Z,11.46
2019-03-22T08:50:10.768Z,11.58
2019-03-22T08:52:39.028Z,11.72
2019-03-22T08:55:07.568Z,11.82
2019-03-22T08:57:35.812Z,12.05
2019-03-22T09:00:07.080Z,12.21
2019-03-22T09:02:35.329Z,12.29
2019-03-22T09:05:04.609Z,12.40
2019-03-22T09:07:32.858Z,12.48
2019-03-22T09:10:01.124Z,12.56
2019-03-22T09:12:29.359Z,12.62
2019-03-22T09:14:57.623Z,12.71
2019-03-22T09:17:25.890Z,12.80
2019-03-22T09:19:54.412Z,12.88
2019-03-22T09:22:22.670Z,12.95
2019-03-22T09:24:51.173Z,13.03
2019-03-22T09:27:19.669Z,13.16
2019-03-22T09:29:47.901Z,13.20
2019-03-22T09:32:16.152Z,13.26
2019-03-22T09:34:44.412Z,13.30
2019-03-22T09:37:12.667Z,13.41
2019-03-22T09:39:41.151Z,13.48
2019-03-22T09:42:09.666Z,13.52
2019-03-22T09:44:43.126Z,13.60
2019-03-22T09:47:08.346Z,13.68
2019-03-22T09:49:36.575Z,13.79
2019-03-22T09:52:05.133Z,13.84
2019-03-22T09:54:33.372Z,13.83
2019-03-22T09:57:01.969Z,13.86
2019-03-22T09:59:30.417Z,13.92
2019-03-22T10:01:58.670Z,13.94
2019-03-22T10:04:28.225Z,13.95
2019-03-22T10:06:56.468Z,14.04
2019-03-22T10:09:24.814Z,14.08
2019-03-22T10:11:53.267Z,14.17
2019-03-22T10:14:21.617Z,14.20
2019-03-22T10:16:49.824Z,14.19
2019-03-22T10:19:18.317Z,14.19
2019-03-22T10:21:46.564Z,14.24
2019-03-22T10:24:14.836Z,14.26
2019-03-22T10:26:43.314Z,14.26
2019-03-22T10:29:11.542Z,14.25
2019-03-22T10:31:39.757Z,14.23
2019-03-22T10:34:08.045Z,14.21
2019-03-22T10:36:36.281Z,14.21
2019-03-22T10:39:07.432Z,14.20
2019-03-22T10:41:35.745Z,14.20
2019-03-22T10:44:04.001Z,14.20
2019-03-22T10:46:32.505Z,14.27
2019-03-22T10:49:00.792Z,14.34
2019-03-22T10:51:29.043Z,14.36
2019-03-22T10:53:57.587Z,14.42
2019-03-22T10:56:26.142Z,14.54
2019-03-22T10:58:54.393Z,14.63
2019-03-22T11:01:22.638Z,14.75
2019-03-22T11:03:51.401Z,14.84
2019-03-22T11:06:26.016Z,14.91
2019-03-22T11:08:49.965Z,14.97
2019-03-22T11:11:18.398Z,15.02
2019-03-22T11:13:46.645Z,15.03
2019-03-22T11:16:14.899Z,15.01
2019-03-22T11:18:43.145Z,15.00
2019-03-22T11:21:11.392Z,14.99
2019-03-22T11:23:39.633Z,14.96
2019-03-22T11:26:08.103Z,14.99
2019-03-22T11:28:36.360Z,15.02
2019-03-22T11:31:05.245Z,15.03
2019-03-22T11:33:33.650Z,15.07
2019-03-22T11:36:01.854Z,15.10
2019-03-22T11:38:30.441Z,15.12
2019-03-22T11:40:58.683Z,15.20
2019-03-22T11:43:27.015Z,15.27
2019-03-22T11:45:55.580Z,15.33
2019-03-22T11:48:23.827Z,15.41
2019-03-22T11:50:52.072Z,15.49
2019-03-22T11:53:21.222Z,15.53
2019-03-22T11:55:49.709Z,15.65
2019-03-22T11:58:17.967Z,15.77
2019-03-22T12:00:46.567Z,15.87
2019-03-22T12:03:15.154Z,15.94
2019-03-22T12:05:43.393Z,16.00
2019-03-22T12:08:11.653Z,16.05
2019-03-22T12:10:39.893Z,16.06
2019-03-22T12:13:08.140Z,16.03
2019-03-22T12:15:36.652Z,16.05
2019-03-22T12:18:04.889Z,16.12
2019-03-22T12:20:33.140Z,16.19
2019-03-22T12:23:01.388Z,16.21
2019-03-22T12:25:29.621Z,16.24
2019-03-22T12:27:57.863Z,16.34
2019-03-22T12:30:26.121Z,16.39
2019-03-22T12:32:54.361Z,16.46
2019-03-22T12:35:22.979Z,16.56
2019-03-22T12:37:51.546Z,16.60
2019-03-22T12:40:23.308Z,16.72
2019-03-22T12:42:51.613Z,16.75
2019-03-22T12:45:26.124Z,16.83
2019-03-22T12:47:54.434Z,16.99
2019-03-22T12:50:23.120Z,16.97
2019-03-22T12:52:51.360Z,16.95
2019-03-22T12:55:20.273Z,16.93
2019-03-22T12:57:48.909Z,16.94
2019-03-22T13:00:26.563Z,17.03
2019-03-22T13:02:55.497Z,17.07
2019-03-22T13:05:24.151Z,17.13
2019-03-22T13:07:52.961Z,17.07
2019-03-22T13:10:26.337Z,17.09
2019-03-22T13:12:54.864Z,17.14
2019-03-22T13:15:23.115Z,17.17
2019-03-22T13:17:51.353Z,17.27
2019-03-22T13:20:19.593Z,17.30
2019-03-22T13:22:48.089Z,17.31
2019-03-22T13:25:17.075Z,17.34
2019-03-22T13:27:45.316Z,17.17
2019-03-22T13:30:32.375Z,17.30
2019-03-22T13:33:00.628Z,17.33
2019-03-22T13:35:28.867Z,17.44
2019-03-22T13:37:57.113Z,17.46
2019-03-22T13:40:25.578Z,17.48
2019-03-22T13:42:54.376Z,17.50
2019-03-22T13:45:22.863Z,17.51
2019-03-22T13:47:51.112Z,17.54
2019-03-22T13:50:19.354Z,17.64
2019-03-22T13:52:47.609Z,17.65
2019-03-22T13:55:15.859Z,17.66
2019-03-22T13:57:44.351Z,17.72
2019-03-22T14:00:16.887Z,17.69
2019-03-22T14:02:45.411Z,17.76
2019-03-22T14:05:14.043Z,17.81
2019-03-22T14:07:42.576Z,17.94
2019-03-22T14:10:19.682Z,18.11
2019-03-22T14:12:47.927Z,18.37
2019-03-22T14:15:16.425Z,18.56
2019-03-22T14:17:44.680Z,18.77
2019-03-22T14:20:13.485Z,18.98
2019-03-22T14:22:41.734Z,19.18
2019-03-22T14:25:10.042Z,19.38
2019-03-22T14:27:38.314Z,19.53
2019-03-22T14:30:07.706Z,19.67
2019-03-22T14:32:35.952Z,19.76
2019-03-22T14:35:06.699Z,19.88
2019-03-22T14:37:34.937Z,20.01
2019-03-22T14:40:03.859Z,20.17
2019-03-22T14:42:32.332Z,20.30
2019-03-22T14:45:00.589Z,20.27
2019-03-22T14:47:28.836Z,20.38
2019-03-22T14:49:57.079Z,20.43
2019-03-22T14:52:25.599Z,20.46
2019-03-22T14:54:54.190Z,20.60
2019-03-22T14:57:22.423Z,20.70
2019-03-22T14:59:58.596Z,20.76
2019-03-22T15:02:20.858Z,20.88
2019-03-22T15:04:49.100Z,20.97
2019-03-22T15:07:20.074Z,20.97
2019-03-22T15:09:47.748Z,21.00
2019-03-22T15:12:15.994Z,21.17
2019-03-22T15:14:51.820Z,21.19
2019-03-22T15:17:24.418Z,21.22
2019-03-22T15:20:03.521Z,21.22
2019-03-22T15:22:49.670Z,21.22
2019-03-22T15:25:22.733Z,21.31
2019-03-22T15:28:08.502Z,21.33
2019-03-22T15:30:56.498Z,21.43
2019-03-22T15:33:41.531Z,21.46
2019-03-22T15:36:23.530Z,21.53
2019-03-22T15:39:02.454Z,21.57
2019-03-22T15:41:30.818Z,21.61
2019-03-22T15:43:59.363Z,21.69
2019-03-22T15:46:27.601Z,21.78
2019-03-22T15:48:56.064Z,21.74
2019-03-22T15:51:24.310Z,21.72
2019-03-22T15:53:52.549Z,21.84
2019-03-22T15:56:21.017Z,21.91
2019-03-22T15:58:49.291Z,22.02
2019-03-22T16:01:17.537Z,22.08
2019-03-22T16:03:46.083Z,22.13
2019-03-22T16:06:14.560Z,22.13
2019-03-22T16:08:43.032Z,22.15
2019-03-22T16:11:11.532Z,22.19
2019-03-22T16:13:40.000Z,22.13
2019-03-22T16:16:08.242Z,22.17
2019-03-22T16:18:36.488Z,22.32
2019-03-22T16:21:04.734Z,22.47
2019-03-22T16:23:33.227Z,22.57
2019-03-22T16:26:01.464Z,22.45
2019-03-22T16:28:29.991Z,22.03
2019-03-22T16:30:58.234Z,21.59
2019-03-22T16:33:26.721Z,21.08
2019-03-22T16:35:55.226Z,20.70
2019-03-22T16:38:23.473Z,20.36
2019-03-22T16:40:51.995Z,20.06
2019-03-22T16:43:20.240Z,19.69
2019-03-22T16:45:48.549Z,19.40
2019-03-22T16:48:16.810Z,19.15
2019-03-22T16:50:45.063Z,18.94
2019-03-22T16:53:13.617Z,18.75
2019-03-22T16:55:42.092Z,18.55
2019-03-22T16:58:10.647Z,18.38
2019-03-22T17:00:38.963Z,18.21
2019-03-22T17:03:07.208Z,18.07
2019-03-22T17:05:35.775Z,17.92
2019-03-22T17:08:04.025Z,17.77
2019-03-22T17:10:32.262Z,17.64
2019-03-22T17:13:00.512Z,17.49
2019-03-22T17:15:28.983Z,17.37
2019-03-22T17:17:57.233Z,17.23
2019-03-22T17:20:25.474Z,17.11
2019-03-22T17:22:53.949Z,16.97
2019-03-22T17:25:22.193Z,16.84
2019-03-22T17:27:50.441Z,16.72
2019-03-22T17:30:19.222Z,16.59
2019-03-22T17:32:47.456Z,16.47
2019-03-22T17:35:15.711Z,16.34
2019-03-22T17:37:44.185Z,16.09
2019-03-22T17:40:12.503Z,16.09
2019-03-22T17:42:40.976Z,15.98
2019-03-22T17:45:11.565Z,15.91
2019-03-22T17:47:39.809Z,15.80
2019-03-22T17:50:10.297Z,15.71
2019-03-22T17:52:38.773Z,15.62
2019-03-22T17:55:07.027Z,15.54
2019-03-22T17:57:35.568Z,15.44
2019-03-22T18:00:06.197Z,15.31
2019-03-22T18:02:34.664Z,15.20
2019-03-22T18:05:03.417Z,15.11
2019-03-22T18:07:31.654Z,15.00
2019-03-22T18:09:59.942Z,14.88
2019-03-22T18:12:28.180Z,14.77
2019-03-22T18:14:56.894Z,14.66
2019-03-22T18:17:25.425Z,14.50
2019-03-22T18:19:53.669Z,14.38
2019-03-22T18:22:21.913Z,14.24
2019-03-22T18:24:50.506Z,14.14
2019-03-22T18:27:18.991Z,14.03
2019-03-22T18:29:47.238Z,13.92
2019-03-22T18:32:15.476Z,13.80
2019-03-22T18:34:43.718Z,13.69
2019-03-22T18:37:11.953Z,13.57
2019-03-22T18:39:40.208Z,13.45
2019-03-22T18:42:08.424Z,13.33
2019-03-22T18:44:36.664Z,13.25
2019-03-22T18:47:04.902Z,13.14
2019-03-22T18:49:33.150Z,13.04
2019-03-22T18:52:01.407Z,12.94
2019-03-22T18:54:29.647Z,12.86
2019-03-22T18:56:57.885Z,12.78
2019-03-22T18:59:26.366Z,12.72
2019-03-22T19:01:54.605Z,12.63
2019-03-22T19:04:22.850Z,12.56
2019-03-22T19:06:51.188Z,12.48
2019-03-22T19:09:19.440Z,12.39
2019-03-22T19:11:47.977Z,12.31
2019-03-22T19:14:16.560Z,12.23
2019-03-22T19:16:44.803Z,12.13
2019-03-22T19:19:13.277Z,12.07
2019-03-22T19:21:41.516Z,12.00
2019-03-22T19:24:09.768Z,11.95
2019-03-22T19:26:38.036Z,11.89
2019-03-22T19:29:06.509Z,11.84
2019-03-22T19:31:34.977Z,11.78
2019-03-22T19:34:03.230Z,11.71
2019-03-22T19:36:31.482Z,11.67
2019-03-22T19:39:00.053Z,11.60
2019-03-22T19:41:28.565Z,11.54
2019-03-22T19:43:56.776Z,11.47
2019-03-22T19:46:25.016Z,11.43
2019-03-22T19:48:53.267Z,11.37
2019-03-22T19:51:21.504Z,11.31
2019-03-22T19:53:49.750Z,11.24
2019-03-22T19:56:17.992Z,11.18
2019-03-22T19:58:46.460Z,11.14
2019-03-22T20:01:14.693Z,11.08
2019-03-22T20:03:42.943Z,11.02
2019-03-22T20:06:11.173Z,10.97
2019-03-22T20:08:39.654Z,10.92
2019-03-22T20:11:08.122Z,10.89
2019-03-22T20:13:36.367Z,10.86
2019-03-22T20:16:04.919Z,10.81
2019-03-22T20:18:33.168Z,10.78
2019-03-22T20:21:01.407Z,10.74
2019-03-22T20:23:29.651Z,10.68
2019-03-22T20:25:58.242Z,10.66
2019-03-22T20:28:26.832Z,10.61
2019-03-22T20:30:55.082Z,10.56
2019-03-22T20:33:23.554Z,10.49
2019-03-22T20:35:52.076Z,10.44
2019-03-22T20:38:20.559Z,10.39
2019-03-22T20:40:48.817Z,10.35
2019-03-22T20:43:17.057Z,10.33
2019-03-22T20:45:45.586Z,10.29
2019-03-22T20:48:13.835Z,10.25
2019-03-22T20:50:42.321Z,10.19
2019-03-22T20:53:10.781Z,10.16
2019-03-22T20:55:39.264Z,10.11
2019-03-22T20:58:07.500Z,10.08
2019-03-22T21:00:36.016Z,10.05
2019-03-22T21:03:04.477Z,10.02
2019-03-22T21:05:32.722Z,10.00
2019-03-22T21:08:00.957Z,9.96
2019-03-22T21:10:29.201Z,9.93
2019-03-22T21:12:57.432Z,9.89
2019-03-22T21:15:25.696Z,9.87
2019-03-22T21:17:53.959Z,9.85
2019-03-22T21:20:22.458Z,9.85
2019-03-22T21:22:50.687Z,9.84
2019-03-22T21:25:18.930Z,9.84
2019-03-22T21:27:47.390Z,9.84
2019-03-22T21:30:16.109Z,9.82
2019-03-22T21:32:45.388Z,9.81
2019-03-22T21:35:22.377Z,9.79
2019-03-22T21:37:44.023Z,9.76
2019-03-22T21:40:12.436Z,9.71
2019-03-22T21:42:40.687Z,9.66
2019-03-22T21:45:09.987Z,9.61
2019-03-22T21:47:38.453Z,9.56
2019-03-22T21:50:08.247Z,9.49
2019-03-22T21:52:36.481Z,9.41
2019-03-22T21:55:06.284Z,9.37
2019-03-22T21:57:34.511Z,9.34
2019-03-22T22:00:03.124Z,9.32
2019-03-22T22:02:31.352Z,9.31
2019-03-22T22:04:59.603Z,9.28
2019-03-22T22:07:27.844Z,9.24
2019-03-22T22:09:56.089Z,9.19
2019-03-22T22:12:24.565Z,9.17
2019-03-22T22:14:53.024Z,9.14
2019-03-22T22:17:21.256Z,9.09
2019-03-22T22:19:49.496Z,9.07
2019-03-22T22:22:17.742Z,9.02
2019-03-22T22:24:46.212Z,8.98
2019-03-22T22:27:14.489Z,8.94
2019-03-22T22:29:42.929Z,8.89
2019-03-22T22:32:11.389Z,8.84
2019-03-22T22:34:39.632Z,8.80
2019-03-22T22:37:08.093Z,8.77
2019-03-22T22:39:36.583Z,8.75
2019-03-22T22:42:04.889Z,8.68
2019-03-22T22:44:33.368Z,8.65
2019-03-22T22:47:01.600Z,8.62
2019-03-22T22:49:29.840Z,8.57
2019-03-22T22:51:58.295Z,8.52
2019-03-22T22:54:26.541Z,8.49
2019-03-22T22:56:54.994Z,8.50
2019-03-22T22:59:23.464Z,8.46
2019-03-22T23:01:51.730Z,8.46
2019-03-22T23:04:19.978Z,8.45
2019-03-22T23:06:48.223Z,8.42
2019-03-22T23:09:16.687Z,8.39
2019-03-22T23:11:45.190Z,8.33
2019-03-22T23:14:13.410Z,8.27
2019-03-22T23:16:41.891Z,8.21
2019-03-22T23:19:10.113Z,8.16
2019-03-22T23:21:38.353Z,8.10
2019-03-22T23:24:06.585Z,8.04
2019-03-22T23:26:34.824Z,8.01
2019-03-22T23:29:03.068Z,7.98
2019-03-22T23:31:31.306Z,7.97
2019-03-22T23:33:59.542Z,7.94
2019-03-22T23:36:27.779Z,7.89
2019-03-22T23:38:56.251Z,7.85
2019-03-22T23:41:24.501Z,7.79
2019-03-22T23:43:52.740Z,7.79
2019-03-22T23:46:21.203Z,7.77
2019-03-22T23:48:49.430Z,7.73
2019-03-22T23:51:17.674Z,7.72
2019-03-22T23:53:46.143Z,7.71
2019-03-22T23:56:14.599Z,7.68
2019-03-22T23:58:42.892Z,7.64
